sensor_id;sensor_type;location;lat;lon;timestamp;P1;durP1;ratioP1;P2;durP2;ratioP2
66272;SDS011;58450;52.150;4.466;2023-12-22T00:03:41;20.23;;;3.33;;
66272;SDS011;58450;52.150;4.466;2023-12-22T00:08:09;19.38;;;3.63;;
66272;SDS011;58450;52.150;4.466;2023-12-22T00:12:38;17.58;;;3.08;;
66272;SDS011;58450;52.150;4.466;2023-12-22T00:17:08;23.27;;;3.88;;
66272;SDS011;58450;52.150;4.466;2023-12-22T00:21:37;19.90;;;3.25;;
66272;SDS011;58450;52.150;4.466;2023-12-22T00:26:05;21.77;;;3.10;;
66272;SDS011;58450;52.150;4.466;2023-12-22T00:30:34;15.45;;;2.80;;
66272;SDS011;58450;52.150;4.466;2023-12-22T00:35:05;16.17;;;3.15;;
66272;SDS011;58450;52.150;4.466;2023-12-22T00:39:34;20.50;;;3.20;;
66272;SDS011;58450;52.150;4.466;2023-12-22T00:44:02;17.85;;;3.72;;
66272;SDS011;58450;52.150;4.466;2023-12-22T00:48:31;19.92;;;3.50;;
66272;SDS011;58450;52.150;4.466;2023-12-22T00:53:01;15.77;;;2.78;;
66272;SDS011;58450;52.150;4.466;2023-12-22T00:57:30;16.05;;;3.55;;
66272;SDS011;58450;52.150;4.466;2023-12-22T01:01:59;15.63;;;3.10;;
66272;SDS011;58450;52.150;4.466;2023-12-22T01:06:27;16.77;;;3.58;;
66272;SDS011;58450;52.150;4.466;2023-12-22T01:10:57;17.50;;;3.67;;
66272;SDS011;58450;52.150;4.466;2023-12-22T01:15:26;15.93;;;2.80;;
66272;SDS011;58450;52.150;4.466;2023-12-22T01:19:55;20.58;;;3.58;;
66272;SDS011;58450;52.150;4.466;2023-12-22T01:24:23;23.42;;;3.63;;
66272;SDS011;58450;52.150;4.466;2023-12-22T01:28:53;22.60;;;3.88;;
66272;SDS011;58450;52.150;4.466;2023-12-22T01:33:22;22.38;;;3.85;;
66272;SDS011;58450;52.150;4.466;2023-12-22T01:37:51;19.25;;;3.83;;
66272;SDS011;58450;52.150;4.466;2023-12-22T01:42:20;18.65;;;2.65;;
66272;SDS011;58450;52.150;4.466;2023-12-22T01:46:50;18.75;;;3.90;;
66272;SDS011;58450;52.150;4.466;2023-12-22T01:51:19;15.85;;;3.28;;
66272;SDS011;58450;52.150;4.466;2023-12-22T01:55:48;17.80;;;2.80;;
66272;SDS011;58450;52.150;4.466;2023-12-22T02:00:18;20.45;;;3.58;;
66272;SDS011;58450;52.150;4.466;2023-12-22T02:04:48;21.65;;;3.53;;
66272;SDS011;58450;52.150;4.466;2023-12-22T02:09:17;18.98;;;3.60;;
66272;SDS011;58450;52.150;4.466;2023-12-22T02:13:46;13.63;;;3.28;;
66272;SDS011;58450;52.150;4.466;2023-12-22T02:18:16;21.20;;;3.60;;
66272;SDS011;58450;52.150;4.466;2023-12-22T02:22:55;17.88;;;3.38;;
66272;SDS011;58450;52.150;4.466;2023-12-22T02:27:25;16.02;;;3.28;;
66272;SDS011;58450;52.150;4.466;2023-12-22T02:31:56;19.38;;;3.50;;
66272;SDS011;58450;52.150;4.466;2023-12-22T02:36:29;17.15;;;3.35;;
66272;SDS011;58450;52.150;4.466;2023-12-22T02:41:00;22.25;;;3.28;;
66272;SDS011;58450;52.150;4.466;2023-12-22T02:45:29;16.17;;;3.17;;
66272;SDS011;58450;52.150;4.466;2023-12-22T02:49:58;13.95;;;2.70;;
66272;SDS011;58450;52.150;4.466;2023-12-22T02:54:27;18.30;;;3.28;;
66272;SDS011;58450;52.150;4.466;2023-12-22T02:58:57;16.17;;;2.85;;
66272;SDS011;58450;52.150;4.466;2023-12-22T03:03:26;15.40;;;3.33;;
66272;SDS011;58450;52.150;4.466;2023-12-22T03:07:55;12.70;;;3.03;;
66272;SDS011;58450;52.150;4.466;2023-12-22T03:12:24;17.85;;;3.15;;
66272;SDS011;58450;52.150;4.466;2023-12-22T03:16:54;16.90;;;2.70;;
66272;SDS011;58450;52.150;4.466;2023-12-22T03:21:22;17.20;;;3.05;;
66272;SDS011;58450;52.150;4.466;2023-12-22T03:25:51;21.45;;;3.78;;
66272;SDS011;58450;52.150;4.466;2023-12-22T03:30:20;18.95;;;3.28;;
66272;SDS011;58450;52.150;4.466;2023-12-22T03:34:50;17.75;;;3.30;;
66272;SDS011;58450;52.150;4.466;2023-12-22T03:39:19;22.00;;;3.30;;
66272;SDS011;58450;52.150;4.466;2023-12-22T03:43:48;21.48;;;3.60;;
66272;SDS011;58450;52.150;4.466;2023-12-22T03:48:17;14.90;;;2.92;;
66272;SDS011;58450;52.150;4.466;2023-12-22T03:52:47;19.63;;;3.33;;
66272;SDS011;58450;52.150;4.466;2023-12-22T03:57:15;16.65;;;3.22;;
66272;SDS011;58450;52.150;4.466;2023-12-22T04:01:49;13.82;;;2.92;;
66272;SDS011;58450;52.150;4.466;2023-12-22T04:06:18;14.23;;;2.92;;
66272;SDS011;58450;52.150;4.466;2023-12-22T04:10:48;16.63;;;3.17;;
66272;SDS011;58450;52.150;4.466;2023-12-22T04:15:17;15.68;;;2.97;;
66272;SDS011;58450;52.150;4.466;2023-12-22T04:19:46;13.48;;;2.53;;
66272;SDS011;58450;52.150;4.466;2023-12-22T04:24:14;14.25;;;2.90;;
66272;SDS011;58450;52.150;4.466;2023-12-22T04:28:44;16.40;;;2.80;;
66272;SDS011;58450;52.150;4.466;2023-12-22T04:33:13;14.38;;;2.78;;
66272;SDS011;58450;52.150;4.466;2023-12-22T04:37:42;18.77;;;3.25;;
66272;SDS011;58450;52.150;4.466;2023-12-22T04:42:11;16.48;;;3.20;;
66272;SDS011;58450;52.150;4.466;2023-12-22T04:46:41;19.35;;;3.17;;
66272;SDS011;58450;52.150;4.466;2023-12-22T04:51:10;18.15;;;3.22;;
66272;SDS011;58450;52.150;4.466;2023-12-22T04:55:39;20.63;;;3.10;;
66272;SDS011;58450;52.150;4.466;2023-12-22T05:00:08;18.17;;;3.72;;
66272;SDS011;58450;52.150;4.466;2023-12-22T05:04:38;12.52;;;2.45;;
66272;SDS011;58450;52.150;4.466;2023-12-22T05:09:07;15.18;;;2.95;;
66272;SDS011;58450;52.150;4.466;2023-12-22T05:13:36;20.67;;;3.67;;
66272;SDS011;58450;52.150;4.466;2023-12-22T05:18:05;14.90;;;2.95;;
66272;SDS011;58450;52.150;4.466;2023-12-22T05:22:35;16.58;;;3.45;;
66272;SDS011;58450;52.150;4.466;2023-12-22T05:27:04;19.98;;;3.47;;
66272;SDS011;58450;52.150;4.466;2023-12-22T05:31:34;14.77;;;3.38;;
66272;SDS011;58450;52.150;4.466;2023-12-22T05:36:02;19.23;;;4.30;;
66272;SDS011;58450;52.150;4.466;2023-12-22T05:40:33;23.40;;;4.28;;
66272;SDS011;58450;52.150;4.466;2023-12-22T05:45:03;29.23;;;4.95;;
66272;SDS011;58450;52.150;4.466;2023-12-22T05:49:32;23.20;;;4.00;;
66272;SDS011;58450;52.150;4.466;2023-12-22T05:54:00;19.98;;;4.50;;
66272;SDS011;58450;52.150;4.466;2023-12-22T05:58:30;21.20;;;4.05;;
66272;SDS011;58450;52.150;4.466;2023-12-22T06:03:00;24.67;;;4.47;;
66272;SDS011;58450;52.150;4.466;2023-12-22T06:07:29;26.45;;;5.07;;
66272;SDS011;58450;52.150;4.466;2023-12-22T06:11:57;29.10;;;5.18;;
66272;SDS011;58450;52.150;4.466;2023-12-22T06:16:27;25.48;;;4.50;;
66272;SDS011;58450;52.150;4.466;2023-12-22T06:20:56;33.10;;;5.45;;
66272;SDS011;58450;52.150;4.466;2023-12-22T06:25:25;27.02;;;5.90;;
66272;SDS011;58450;52.150;4.466;2023-12-22T06:29:53;38.10;;;6.80;;
66272;SDS011;58450;52.150;4.466;2023-12-22T06:34:23;32.00;;;6.32;;
66272;SDS011;58450;52.150;4.466;2023-12-22T06:38:52;34.08;;;6.25;;
66272;SDS011;58450;52.150;4.466;2023-12-22T06:43:21;31.58;;;5.53;;
66272;SDS011;58450;52.150;4.466;2023-12-22T06:47:50;28.90;;;5.45;;
66272;SDS011;58450;52.150;4.466;2023-12-22T06:52:20;29.77;;;6.40;;
66272;SDS011;58450;52.150;4.466;2023-12-22T06:56:49;33.55;;;6.10;;
66272;SDS011;58450;52.150;4.466;2023-12-22T07:01:18;35.10;;;5.68;;
66272;SDS011;58450;52.150;4.466;2023-12-22T07:05:47;29.25;;;5.82;;
66272;SDS011;58450;52.150;4.466;2023-12-22T07:10:17;29.05;;;4.95;;
66272;SDS011;58450;52.150;4.466;2023-12-22T07:14:46;29.73;;;5.25;;
66272;SDS011;58450;52.150;4.466;2023-12-22T07:19:15;23.75;;;4.75;;
66272;SDS011;58450;52.150;4.466;2023-12-22T07:23:44;30.88;;;4.70;;
66272;SDS011;58450;52.150;4.466;2023-12-22T07:28:15;22.23;;;4.35;;
66272;SDS011;58450;52.150;4.466;2023-12-22T07:32:44;26.33;;;4.60;;
66272;SDS011;58450;52.150;4.466;2023-12-22T07:37:13;27.00;;;4.68;;
66272;SDS011;58450;52.150;4.466;2023-12-22T07:41:44;28.23;;;4.75;;
66272;SDS011;58450;52.150;4.466;2023-12-22T07:46:17;27.67;;;5.40;;
66272;SDS011;58450;52.150;4.466;2023-12-22T07:50:46;22.20;;;4.32;;
66272;SDS011;58450;52.150;4.466;2023-12-22T07:55:15;23.58;;;4.20;;
66272;SDS011;58450;52.150;4.466;2023-12-22T07:59:44;23.25;;;4.38;;
66272;SDS011;58450;52.150;4.466;2023-12-22T08:04:14;23.88;;;3.90;;
66272;SDS011;58450;52.150;4.466;2023-12-22T08:08:43;17.45;;;3.75;;
66272;SDS011;58450;52.150;4.466;2023-12-22T08:13:12;27.65;;;5.03;;
66272;SDS011;58450;52.150;4.466;2023-12-22T08:17:45;24.40;;;4.10;;
66272;SDS011;58450;52.150;4.466;2023-12-22T08:22:16;24.08;;;4.28;;
66272;SDS011;58450;52.150;4.466;2023-12-22T08:26:45;22.85;;;4.32;;
66272;SDS011;58450;52.150;4.466;2023-12-22T08:31:13;16.85;;;3.20;;
66272;SDS011;58450;52.150;4.466;2023-12-22T08:35:42;18.50;;;3.28;;
66272;SDS011;58450;52.150;4.466;2023-12-22T08:40:12;18.73;;;3.60;;
66272;SDS011;58450;52.150;4.466;2023-12-22T08:44:41;13.80;;;2.45;;
66272;SDS011;58450;52.150;4.466;2023-12-22T08:49:10;17.92;;;2.78;;
66272;SDS011;58450;52.150;4.466;2023-12-22T08:53:39;11.13;;;2.22;;
66272;SDS011;58450;52.150;4.466;2023-12-22T08:58:10;16.45;;;2.65;;
66272;SDS011;58450;52.150;4.466;2023-12-22T09:02:39;15.45;;;2.95;;
66272;SDS011;58450;52.150;4.466;2023-12-22T09:07:07;12.45;;;2.33;;
66272;SDS011;58450;52.150;4.466;2023-12-22T09:11:36;14.48;;;2.05;;
66272;SDS011;58450;52.150;4.466;2023-12-22T09:16:06;18.02;;;2.75;;
66272;SDS011;58450;52.150;4.466;2023-12-22T09:20:35;11.30;;;2.50;;
66272;SDS011;58450;52.150;4.466;2023-12-22T09:25:04;10.55;;;2.05;;
66272;SDS011;58450;52.150;4.466;2023-12-22T09:29:33;17.25;;;2.72;;
66272;SDS011;58450;52.150;4.466;2023-12-22T09:34:03;11.10;;;2.42;;
66272;SDS011;58450;52.150;4.466;2023-12-22T09:38:31;11.43;;;2.70;;
66272;SDS011;58450;52.150;4.466;2023-12-22T09:43:02;14.35;;;2.47;;
66272;SDS011;58450;52.150;4.466;2023-12-22T09:47:33;11.30;;;2.38;;
66272;SDS011;58450;52.150;4.466;2023-12-22T09:52:05;9.13;;;2.50;;
66272;SDS011;58450;52.150;4.466;2023-12-22T09:56:35;13.95;;;2.25;;
66272;SDS011;58450;52.150;4.466;2023-12-22T10:01:07;12.25;;;2.45;;
66272;SDS011;58450;52.150;4.466;2023-12-22T10:05:36;12.90;;;2.60;;
66272;SDS011;58450;52.150;4.466;2023-12-22T10:10:07;13.77;;;2.30;;
66272;SDS011;58450;52.150;4.466;2023-12-22T10:14:36;20.35;;;3.15;;
66272;SDS011;58450;52.150;4.466;2023-12-22T10:19:08;8.95;;;2.22;;
66272;SDS011;58450;52.150;4.466;2023-12-22T10:23:38;13.60;;;2.33;;
66272;SDS011;58450;52.150;4.466;2023-12-22T10:28:10;10.30;;;2.60;;
66272;SDS011;58450;52.150;4.466;2023-12-22T10:32:40;15.40;;;2.22;;
66272;SDS011;58450;52.150;4.466;2023-12-22T10:37:09;13.57;;;2.40;;
66272;SDS011;58450;52.150;4.466;2023-12-22T10:41:38;13.55;;;2.22;;
66272;SDS011;58450;52.150;4.466;2023-12-22T10:46:08;12.18;;;2.08;;
66272;SDS011;58450;52.150;4.466;2023-12-22T10:50:38;13.77;;;2.20;;
66272;SDS011;58450;52.150;4.466;2023-12-22T10:55:08;13.48;;;2.10;;
66272;SDS011;58450;52.150;4.466;2023-12-22T10:59:38;14.52;;;2.58;;
66272;SDS011;58450;52.150;4.466;2023-12-22T11:04:13;10.98;;;2.20;;
66272;SDS011;58450;52.150;4.466;2023-12-22T11:08:44;13.70;;;1.98;;
66272;SDS011;58450;52.150;4.466;2023-12-22T11:13:19;13.43;;;2.38;;
66272;SDS011;58450;52.150;4.466;2023-12-22T11:17:49;17.63;;;2.80;;
66272;SDS011;58450;52.150;4.466;2023-12-22T11:22:23;14.23;;;2.40;;
66272;SDS011;58450;52.150;4.466;2023-12-22T11:26:54;19.77;;;2.60;;
66272;SDS011;58450;52.150;4.466;2023-12-22T11:31:23;12.60;;;2.13;;
66272;SDS011;58450;52.150;4.466;2023-12-22T11:35:52;11.02;;;1.83;;
66272;SDS011;58450;52.150;4.466;2023-12-22T11:40:24;11.75;;;2.33;;
66272;SDS011;58450;52.150;4.466;2023-12-22T11:44:55;13.45;;;2.10;;
66272;SDS011;58450;52.150;4.466;2023-12-22T11:49:31;13.45;;;2.28;;
66272;SDS011;58450;52.150;4.466;2023-12-22T11:54:00;11.43;;;2.10;;
66272;SDS011;58450;52.150;4.466;2023-12-22T11:58:35;14.57;;;2.53;;
66272;SDS011;58450;52.150;4.466;2023-12-22T12:03:05;12.35;;;2.25;;
66272;SDS011;58450;52.150;4.466;2023-12-22T12:07:38;15.30;;;2.60;;
66272;SDS011;58450;52.150;4.466;2023-12-22T12:12:11;14.77;;;2.47;;
66272;SDS011;58450;52.150;4.466;2023-12-22T12:16:41;14.65;;;2.90;;
66272;SDS011;58450;52.150;4.466;2023-12-22T12:21:11;17.48;;;2.15;;
66272;SDS011;58450;52.150;4.466;2023-12-22T12:25:41;14.48;;;2.60;;
66272;SDS011;58450;52.150;4.466;2023-12-22T12:30:11;16.23;;;2.30;;
66272;SDS011;58450;52.150;4.466;2023-12-22T12:34:41;13.93;;;2.50;;
66272;SDS011;58450;52.150;4.466;2023-12-22T12:39:13;13.43;;;2.92;;
66272;SDS011;58450;52.150;4.466;2023-12-22T12:43:49;20.80;;;2.65;;
66272;SDS011;58450;52.150;4.466;2023-12-22T12:48:18;11.73;;;2.78;;
66272;SDS011;58450;52.150;4.466;2023-12-22T12:52:51;10.05;;;2.42;;
66272;SDS011;58450;52.150;4.466;2023-12-22T12:57:20;15.75;;;2.63;;
66272;SDS011;58450;52.150;4.466;2023-12-22T13:01:49;21.10;;;2.97;;
66272;SDS011;58450;52.150;4.466;2023-12-22T13:06:18;18.80;;;3.20;;
66272;SDS011;58450;52.150;4.466;2023-12-22T13:11:00;17.23;;;2.88;;
66272;SDS011;58450;52.150;4.466;2023-12-22T13:15:30;21.42;;;3.25;;
66272;SDS011;58450;52.150;4.466;2023-12-22T13:19:59;16.92;;;2.58;;
66272;SDS011;58450;52.150;4.466;2023-12-22T13:24:27;14.57;;;2.50;;
66272;SDS011;58450;52.150;4.466;2023-12-22T13:28:58;13.82;;;2.95;;
66272;SDS011;58450;52.150;4.466;2023-12-22T13:33:27;18.88;;;3.03;;
66272;SDS011;58450;52.150;4.466;2023-12-22T13:38:01;15.88;;;2.85;;
66272;SDS011;58450;52.150;4.466;2023-12-22T13:42:30;16.65;;;3.33;;
66272;SDS011;58450;52.150;4.466;2023-12-22T13:47:03;18.23;;;3.25;;
66272;SDS011;58450;52.150;4.466;2023-12-22T13:51:38;16.20;;;2.72;;
66272;SDS011;58450;52.150;4.466;2023-12-22T13:56:07;18.80;;;2.67;;
66272;SDS011;58450;52.150;4.466;2023-12-22T14:00:37;21.95;;;3.47;;
66272;SDS011;58450;52.150;4.466;2023-12-22T14:05:08;20.60;;;3.55;;
66272;SDS011;58450;52.150;4.466;2023-12-22T14:09:36;18.58;;;3.55;;
66272;SDS011;58450;52.150;4.466;2023-12-22T14:14:05;20.80;;;3.30;;
66272;SDS011;58450;52.150;4.466;2023-12-22T14:18:35;18.85;;;3.50;;
66272;SDS011;58450;52.150;4.466;2023-12-22T14:23:06;20.33;;;3.25;;
66272;SDS011;58450;52.150;4.466;2023-12-22T14:27:34;13.25;;;3.15;;
66272;SDS011;58450;52.150;4.466;2023-12-22T14:32:06;18.60;;;2.75;;
66272;SDS011;58450;52.150;4.466;2023-12-22T14:36:34;15.27;;;3.00;;
66272;SDS011;58450;52.150;4.466;2023-12-22T14:41:04;18.45;;;3.30;;
66272;SDS011;58450;52.150;4.466;2023-12-22T14:45:33;20.05;;;3.83;;
66272;SDS011;58450;52.150;4.466;2023-12-22T14:50:02;26.92;;;3.70;;
66272;SDS011;58450;52.150;4.466;2023-12-22T14:54:31;25.60;;;3.97;;
66272;SDS011;58450;52.150;4.466;2023-12-22T14:59:01;21.50;;;3.20;;
66272;SDS011;58450;52.150;4.466;2023-12-22T15:03:29;22.00;;;3.75;;
66272;SDS011;58450;52.150;4.466;2023-12-22T15:08:00;18.75;;;3.35;;
66272;SDS011;58450;52.150;4.466;2023-12-22T15:12:31;21.30;;;3.55;;
66272;SDS011;58450;52.150;4.466;2023-12-22T15:17:01;20.08;;;2.92;;
66272;SDS011;58450;52.150;4.466;2023-12-22T15:21:30;23.83;;;3.65;;
66272;SDS011;58450;52.150;4.466;2023-12-22T15:25:58;20.02;;;3.25;;
66272;SDS011;58450;52.150;4.466;2023-12-22T15:30:27;16.77;;;3.58;;
66272;SDS011;58450;52.150;4.466;2023-12-22T15:34:57;23.45;;;3.47;;
66272;SDS011;58450;52.150;4.466;2023-12-22T15:39:26;12.57;;;2.65;;
66272;SDS011;58450;52.150;4.466;2023-12-22T15:43:54;20.33;;;4.00;;
66272;SDS011;58450;52.150;4.466;2023-12-22T15:48:23;18.48;;;3.75;;
66272;SDS011;58450;52.150;4.466;2023-12-22T15:52:54;17.98;;;3.08;;
66272;SDS011;58450;52.150;4.466;2023-12-22T15:57:22;18.42;;;3.15;;
66272;SDS011;58450;52.150;4.466;2023-12-22T16:01:51;18.23;;;3.60;;
66272;SDS011;58450;52.150;4.466;2023-12-22T16:06:20;18.52;;;3.38;;
66272;SDS011;58450;52.150;4.466;2023-12-22T16:10:51;21.63;;;3.10;;
66272;SDS011;58450;52.150;4.466;2023-12-22T16:15:19;19.20;;;3.28;;
66272;SDS011;58450;52.150;4.466;2023-12-22T16:19:49;19.15;;;3.13;;
66272;SDS011;58450;52.150;4.466;2023-12-22T16:24:18;19.73;;;3.33;;
66272;SDS011;58450;52.150;4.466;2023-12-22T16:28:49;22.45;;;3.88;;
66272;SDS011;58450;52.150;4.466;2023-12-22T16:33:18;15.27;;;3.10;;
66272;SDS011;58450;52.150;4.466;2023-12-22T16:37:47;20.88;;;3.45;;
66272;SDS011;58450;52.150;4.466;2023-12-22T16:42:16;17.55;;;3.38;;
66272;SDS011;58450;52.150;4.466;2023-12-22T16:46:48;19.10;;;3.42;;
66272;SDS011;58450;52.150;4.466;2023-12-22T16:51:17;20.15;;;3.10;;
66272;SDS011;58450;52.150;4.466;2023-12-22T16:55:46;21.90;;;3.92;;
66272;SDS011;58450;52.150;4.466;2023-12-22T17:00:15;21.33;;;3.53;;
66272;SDS011;58450;52.150;4.466;2023-12-22T17:04:45;17.48;;;3.40;;
66272;SDS011;58450;52.150;4.466;2023-12-22T17:09:14;20.73;;;3.33;;
66272;SDS011;58450;52.150;4.466;2023-12-22T17:13:43;18.25;;;3.15;;
66272;SDS011;58450;52.150;4.466;2023-12-22T17:18:11;20.90;;;3.72;;
66272;SDS011;58450;52.150;4.466;2023-12-22T17:22:41;30.30;;;4.45;;
66272;SDS011;58450;52.150;4.466;2023-12-22T17:27:11;21.95;;;2.80;;
66272;SDS011;58450;52.150;4.466;2023-12-22T17:31:39;23.35;;;3.38;;
66272;SDS011;58450;52.150;4.466;2023-12-22T17:36:08;14.40;;;3.00;;
66272;SDS011;58450;52.150;4.466;2023-12-22T17:40:38;20.15;;;2.80;;
66272;SDS011;58450;52.150;4.466;2023-12-22T17:45:08;22.35;;;3.50;;
66272;SDS011;58450;52.150;4.466;2023-12-22T17:49:37;20.02;;;3.42;;
66272;SDS011;58450;52.150;4.466;2023-12-22T17:54:06;22.80;;;3.50;;
66272;SDS011;58450;52.150;4.466;2023-12-22T17:58:36;20.60;;;3.55;;
66272;SDS011;58450;52.150;4.466;2023-12-22T18:03:05;17.90;;;3.10;;
66272;SDS011;58450;52.150;4.466;2023-12-22T18:07:34;20.83;;;3.15;;
66272;SDS011;58450;52.150;4.466;2023-12-22T18:12:03;20.83;;;3.17;;
66272;SDS011;58450;52.150;4.466;2023-12-22T18:16:38;22.08;;;3.30;;
66272;SDS011;58450;52.150;4.466;2023-12-22T18:21:07;21.83;;;3.40;;
66272;SDS011;58450;52.150;4.466;2023-12-22T18:25:36;11.52;;;2.50;;
66272;SDS011;58450;52.150;4.466;2023-12-22T18:30:05;16.40;;;3.05;;
66272;SDS011;58450;52.150;4.466;2023-12-22T18:34:35;20.70;;;3.75;;
66272;SDS011;58450;52.150;4.466;2023-12-22T18:39:08;19.35;;;3.10;;
66272;SDS011;58450;52.150;4.466;2023-12-22T18:43:37;13.82;;;2.83;;
66272;SDS011;58450;52.150;4.466;2023-12-22T18:48:06;18.40;;;2.67;;
66272;SDS011;58450;52.150;4.466;2023-12-22T18:52:37;13.95;;;2.92;;
66272;SDS011;58450;52.150;4.466;2023-12-22T18:57:07;16.55;;;3.17;;
66272;SDS011;58450;52.150;4.466;2023-12-22T19:01:36;15.63;;;2.75;;
66272;SDS011;58450;52.150;4.466;2023-12-22T19:06:09;16.40;;;2.67;;
66272;SDS011;58450;52.150;4.466;2023-12-22T19:10:39;19.50;;;2.97;;
66272;SDS011;58450;52.150;4.466;2023-12-22T19:15:10;18.05;;;2.72;;
66272;SDS011;58450;52.150;4.466;2023-12-22T19:19:38;23.25;;;3.05;;
66272;SDS011;58450;52.150;4.466;2023-12-22T19:24:07;19.42;;;3.40;;
66272;SDS011;58450;52.150;4.466;2023-12-22T19:28:38;23.40;;;3.03;;
66272;SDS011;58450;52.150;4.466;2023-12-22T19:33:06;18.92;;;2.75;;
66272;SDS011;58450;52.150;4.466;2023-12-22T19:37:35;19.90;;;3.10;;
66272;SDS011;58450;52.150;4.466;2023-12-22T19:42:04;21.10;;;3.15;;
66272;SDS011;58450;52.150;4.466;2023-12-22T19:46:34;20.50;;;3.40;;
66272;SDS011;58450;52.150;4.466;2023-12-22T19:51:03;9.85;;;1.45;;
66272;SDS011;58450;52.150;4.466;2023-12-22T19:55:32;9.07;;;1.40;;
66272;SDS011;58450;52.150;4.466;2023-12-22T20:00:01;10.40;;;1.92;;
66272;SDS011;58450;52.150;4.466;2023-12-22T20:04:32;8.77;;;1.65;;
66272;SDS011;58450;52.150;4.466;2023-12-22T20:09:01;13.13;;;2.25;;
66272;SDS011;58450;52.150;4.466;2023-12-22T20:13:30;9.63;;;1.67;;
66272;SDS011;58450;52.150;4.466;2023-12-22T20:17:59;11.35;;;1.70;;
66272;SDS011;58450;52.150;4.466;2023-12-22T20:22:31;12.38;;;2.00;;
66272;SDS011;58450;52.150;4.466;2023-12-22T20:27:00;11.85;;;2.00;;
66272;SDS011;58450;52.150;4.466;2023-12-22T20:31:29;13.50;;;1.83;;
66272;SDS011;58450;52.150;4.466;2023-12-22T20:35:58;15.02;;;2.15;;
66272;SDS011;58450;52.150;4.466;2023-12-22T20:40:28;11.15;;;1.70;;
66272;SDS011;58450;52.150;4.466;2023-12-22T20:44:56;12.88;;;2.22;;
66272;SDS011;58450;52.150;4.466;2023-12-22T20:49:26;12.00;;;2.17;;
66272;SDS011;58450;52.150;4.466;2023-12-22T20:53:55;17.73;;;2.15;;
66272;SDS011;58450;52.150;4.466;2023-12-22T20:58:26;11.95;;;1.65;;
66272;SDS011;58450;52.150;4.466;2023-12-22T21:02:54;20.02;;;2.15;;
66272;SDS011;58450;52.150;4.466;2023-12-22T21:07:23;24.50;;;3.15;;
66272;SDS011;58450;52.150;4.466;2023-12-22T21:11:52;15.95;;;2.20;;
66272;SDS011;58450;52.150;4.466;2023-12-22T21:16:23;16.88;;;2.60;;
66272;SDS011;58450;52.150;4.466;2023-12-22T21:20:52;16.80;;;2.95;;
66272;SDS011;58450;52.150;4.466;2023-12-22T21:25:22;19.98;;;2.70;;
66272;SDS011;58450;52.150;4.466;2023-12-22T21:29:51;20.20;;;2.25;;
66272;SDS011;58450;52.150;4.466;2023-12-22T21:34:21;13.55;;;2.20;;
66272;SDS011;58450;52.150;4.466;2023-12-22T21:38:50;7.85;;;1.50;;
66272;SDS011;58450;52.150;4.466;2023-12-22T21:43:18;12.15;;;1.48;;
66272;SDS011;58450;52.150;4.466;2023-12-22T21:47:47;11.60;;;2.28;;
66272;SDS011;58450;52.150;4.466;2023-12-22T21:52:17;10.50;;;1.92;;
66272;SDS011;58450;52.150;4.466;2023-12-22T21:56:46;13.13;;;1.88;;
66272;SDS011;58450;52.150;4.466;2023-12-22T22:01:14;12.38;;;1.60;;
66272;SDS011;58450;52.150;4.466;2023-12-22T22:05:43;13.18;;;2.35;;
66272;SDS011;58450;52.150;4.466;2023-12-22T22:10:13;14.32;;;2.28;;
66272;SDS011;58450;52.150;4.466;2023-12-22T22:14:42;12.23;;;1.83;;
66272;SDS011;58450;52.150;4.466;2023-12-22T22:19:11;13.13;;;1.80;;
66272;SDS011;58450;52.150;4.466;2023-12-22T22:23:40;12.10;;;1.65;;
66272;SDS011;58450;52.150;4.466;2023-12-22T22:28:10;14.63;;;2.38;;
66272;SDS011;58450;52.150;4.466;2023-12-22T22:32:39;11.48;;;2.00;;
66272;SDS011;58450;52.150;4.466;2023-12-22T22:37:08;11.90;;;2.15;;
66272;SDS011;58450;52.150;4.466;2023-12-22T22:41:36;17.00;;;2.08;;
66272;SDS011;58450;52.150;4.466;2023-12-22T22:46:09;12.88;;;2.03;;
66272;SDS011;58450;52.150;4.466;2023-12-22T22:50:38;14.93;;;2.13;;
66272;SDS011;58450;52.150;4.466;2023-12-22T22:55:07;13.82;;;2.20;;
66272;SDS011;58450;52.150;4.466;2023-12-22T22:59:36;16.20;;;1.90;;
66272;SDS011;58450;52.150;4.466;2023-12-22T23:04:06;17.35;;;2.33;;
66272;SDS011;58450;52.150;4.466;2023-12-22T23:08:36;11.48;;;1.90;;
66272;SDS011;58450;52.150;4.466;2023-12-22T23:13:04;16.38;;;2.08;;
66272;SDS011;58450;52.150;4.466;2023-12-22T23:17:33;19.80;;;2.72;;
66272;SDS011;58450;52.150;4.466;2023-12-22T23:22:04;14.98;;;2.53;;
66272;SDS011;58450;52.150;4.466;2023-12-22T23:26:33;10.80;;;2.47;;
66272;SDS011;58450;52.150;4.466;2023-12-22T23:31:02;12.20;;;2.38;;
66272;SDS011;58450;52.150;4.466;2023-12-22T23:35:30;17.13;;;2.58;;
66272;SDS011;58450;52.150;4.466;2023-12-22T23:40:00;11.93;;;1.88;;
66272;SDS011;58450;52.150;4.466;2023-12-22T23:44:31;11.15;;;1.95;;
66272;SDS011;58450;52.150;4.466;2023-12-22T23:49:00;13.32;;;1.95;;
66272;SDS011;58450;52.150;4.466;2023-12-22T23:53:28;12.65;;;1.70;;
66272;SDS011;58450;52.150;4.466;2023-12-22T23:57:58;12.65;;;2.08;;
